Time;durP1;ratioP1;P1;durP2;ratioP2;P2;SDS_P1;SDS_P2;PMS_P1;PMS_P2;Temp;Humidity;BMP_temperature;BMP_pressure;BME280_temperature;BME280_humidity;BME280_pressure;Samples;Min_cycle;Max_cycle;Signal;HPM_P1;HPM_P2
2023/03/07 00:00:44;;;;;;;;;;;;;;;3.45;nan;99377.69;4997591;28;19918;-84
2023/03/07 00:03:13;;;;;;;;;;;;;;;3.46;nan;99379.34;4992617;28;19928;-87
2023/03/07 00:05:39;;;;;;;;;;;;;;;3.46;nan;99381.16;5011197;28;19953;-84
2023/03/07 00:08:04;;;;;;;;;;;;;;;3.42;nan;99372.72;4996395;28;20925;-87
2023/03/07 00:10:29;;;;;;;;;;;;;;;3.40;nan;99374.66;4995449;28;20375;-86
2023/03/07 00:12:55;;;;;;;;;;;;;;;3.37;nan;99369.69;4995212;28;19914;-85
2023/03/07 00:15:20;;;;;;;;;;;;;;;3.24;nan;99371.72;4993471;28;19917;-85
2023/03/07 00:17:45;;;;;;;;;;;;;;;3.15;nan;99365.53;5013039;28;20404;-86
2023/03/07 00:20:13;;;;;;;;;;;;;;;3.07;nan;99358.31;4995599;28;19923;-85
2023/03/07 00:22:38;;;;;;;;;;;;;;;3.00;nan;99354.59;5013457;28;19917;-85
2023/03/07 00:25:03;;;;;;;;;;;;;;;2.95;nan;99343.72;5007207;28;20134;-85
2023/03/07 00:27:30;;;;;;;;;;;;;;;2.91;nan;99348.41;4999031;28;20310;-86
2023/03/07 00:29:55;;;;;;;;;;;;;;;2.89;nan;99347.69;4997773;28;19913;-87
2023/03/07 00:32:20;;;;;;;;;;;;;;;2.90;nan;99345.91;5010708;28;19913;-87
2023/03/07 00:34:45;;;;;;;;;;;;;;;2.93;nan;99336.03;4979569;28;19913;-86
2023/03/07 00:37:10;;;;;;;;;;;;;;;2.93;nan;99345.63;4999796;28;20414;-86
2023/03/07 00:39:35;;;;;;;;;;;;;;;2.98;nan;99335.66;5017740;28;19948;-86
2023/03/07 00:42:01;;;;;;;;;;;;;;;3.00;nan;99344.16;4997649;28;20342;-86
2023/03/07 00:44:28;;;;;;;;;;;;;;;2.98;nan;99336.47;4999363;28;19975;-86
2023/03/07 00:46:54;;;;;;;;;;;;;;;2.96;nan;99337.56;5001980;28;19941;-85
2023/03/07 00:49:19;;;;;;;;;;;;;;;2.91;nan;99324.06;4998939;28;19921;-85
2023/03/07 00:51:45;;;;;;;;;;;;;;;2.87;nan;99320.88;4996775;28;19945;-85
2023/03/07 00:54:10;;;;;;;;;;;;;;;2.85;nan;99320.19;4997508;28;19917;-85
2023/03/07 00:56:35;;;;;;;;;;;;;;;2.84;nan;99320.34;4995808;28;19952;-85
2023/03/07 00:59:00;;;;;;;;;;;;;;;2.86;nan;99311.41;4995678;28;19925;-85
2023/03/07 01:01:26;;;;;;;;;;;;;;;2.82;nan;99317.84;4994169;28;19944;-85
2023/03/07 01:03:55;;;;;;;;;;;;;;;2.79;nan;99312.91;4999081;28;20012;-86
2023/03/07 01:06:25;;;;;;;;;;;;;;;2.74;nan;99310.69;5010325;28;19991;-85
2023/03/07 01:08:51;;;;;;;;;;;;;;;2.72;nan;99310.00;5009531;28;20342;-85
2023/03/07 01:11:16;;;;;;;;;;;;;;;2.66;nan;99307.06;4995156;28;19918;-86
2023/03/07 01:13:41;;;;;;;;;;;;;;;2.64;nan;99304.59;4998580;28;20335;-85
2023/03/07 01:16:11;;;;;;;;;;;;;;;2.63;nan;99302.94;5010652;28;19922;-85
2023/03/07 01:18:36;;;;;;;;;;;;;;;2.59;nan;99300.72;4996497;28;19989;-86
2023/03/07 01:21:09;;;;;;;;;;;;;;;2.58;nan;99294.69;5009666;28;20418;-85
2023/03/07 01:23:34;;;;;;;;;;;;;;;2.57;nan;99293.00;4996710;28;19985;-85
2023/03/07 01:25:59;;;;;;;;;;;;;;;2.54;nan;99294.09;4997969;28;19945;-85
2023/03/07 01:28:24;;;;;;;;;;;;;;;2.49;nan;99292.84;5011687;28;19976;-86
2023/03/07 01:30:57;;;;;;;;;;;;;;;2.50;nan;99289.28;5013220;28;19917;-85
2023/03/07 01:33:22;;;;;;;;;;;;;;;2.53;nan;99283.81;5009788;28;20267;-85
2023/03/07 01:35:47;;;;;;;;;;;;;;;2.48;nan;99283.34;4999905;28;19921;-85
2023/03/07 01:38:12;;;;;;;;;;;;;;;2.43;nan;99281.16;5002475;28;19929;-85
2023/03/07 01:40:38;;;;;;;;;;;;;;;2.45;nan;99276.63;4996927;28;19925;-86
2023/03/07 01:43:23;;;;;;;;;;;;;;;2.41;nan;99277.84;4995894;28;19925;-85
2023/03/07 01:45:48;;;;;;;;;;;;;;;2.42;nan;99270.84;5010864;28;19917;-85
2023/03/07 01:48:13;;;;;;;;;;;;;;;2.43;nan;99267.28;5013149;28;19956;-86
2023/03/07 01:50:38;;;;;;;;;;;;;;;2.45;nan;99265.38;4986518;28;19973;-85
2023/03/07 01:53:04;;;;;;;;;;;;;;;2.43;nan;99260.28;4993249;28;20379;-85
2023/03/07 01:55:31;;;;;;;;;;;;;;;2.45;nan;99262.75;5008798;28;19917;-84
2023/03/07 01:57:59;;;;;;;;;;;;;;;2.43;nan;99256.84;5009638;28;19979;-85
2023/03/07 02:00:25;;;;;;;;;;;;;;;2.42;nan;99253.41;4992457;28;20056;-85
2023/03/07 02:03:10;;;;;;;;;;;;;;;2.44;nan;99253.28;4988002;28;20509;-84
2023/03/07 02:05:38;;;;;;;;;;;;;;;2.49;nan;99248.50;4983684;28;20353;-84
2023/03/07 02:08:06;;;;;;;;;;;;;;;2.49;nan;99251.09;5007209;28;19918;-86
2023/03/07 02:10:32;;;;;;;;;;;;;;;2.52;nan;99246.44;5009684;28;19917;-85
2023/03/07 02:12:57;;;;;;;;;;;;;;;2.59;nan;99243.31;5007746;28;19924;-85
2023/03/07 02:15:22;;;;;;;;;;;;;;;2.62;nan;99240.44;5009070;28;19917;-85
2023/03/07 02:17:48;;;;;;;;;;;;;;;2.66;nan;99244.44;5005594;28;19921;-86
2023/03/07 02:20:31;;;;;;;;;;;;;;;2.66;nan;99241.81;5024441;28;20882;-86
2023/03/07 02:22:57;;;;;;;;;;;;;;;2.71;nan;99244.84;5008684;28;19909;-86
2023/03/07 02:25:22;;;;;;;;;;;;;;;2.73;nan;99241.16;5006166;28;19917;-86
2023/03/07 02:27:48;;;;;;;;;;;;;;;2.79;nan;99237.19;5010778;28;19910;-86
2023/03/07 02:30:19;;;;;;;;;;;;;;;2.86;nan;99234.84;5014793;28;19925;-86
2023/03/07 02:32:45;;;;;;;;;;;;;;;2.88;nan;99231.16;5026964;28;19959;-86
2023/03/07 02:35:12;;;;;;;;;;;;;;;2.94;nan;99225.41;5027880;28;19917;-86
2023/03/07 02:37:38;;;;;;;;;;;;;;;3.01;nan;99230.09;5009873;28;19913;-86
2023/03/07 02:40:05;;;;;;;;;;;;;;;3.08;nan;99232.03;5009845;28;20006;-86
2023/03/07 02:42:32;;;;;;;;;;;;;;;3.10;nan;99229.25;5008903;28;19921;-86
2023/03/07 02:44:58;;;;;;;;;;;;;;;3.17;nan;99227.75;5010453;28;19967;-86
2023/03/07 02:47:24;;;;;;;;;;;;;;;3.19;nan;99225.84;5024295;28;19967;-85
2023/03/07 02:49:49;;;;;;;;;;;;;;;3.22;nan;99219.50;4999857;28;19921;-86
2023/03/07 02:52:14;;;;;;;;;;;;;;;3.23;nan;99223.78;5000589;28;20452;-85
2023/03/07 02:54:39;;;;;;;;;;;;;;;3.24;nan;99222.81;4999967;28;19961;-86
2023/03/07 02:57:04;;;;;;;;;;;;;;;3.25;nan;99220.06;4995264;28;19913;-87
2023/03/07 02:59:30;;;;;;;;;;;;;;;3.24;nan;99223.63;4999295;28;19920;-86
2023/03/07 03:01:55;;;;;;;;;;;;;;;3.25;nan;99221.88;4994410;28;20330;-85
2023/03/07 03:04:21;;;;;;;;;;;;;;;3.22;nan;99209.06;4988679;28;19914;-86
2023/03/07 03:06:46;;;;;;;;;;;;;;;3.21;nan;99213.47;4989439;28;19923;-86
2023/03/07 03:09:11;;;;;;;;;;;;;;;3.24;nan;99214.97;5007226;28;19928;-86
2023/03/07 03:11:37;;;;;;;;;;;;;;;3.25;nan;99219.25;5004842;28;19963;-86
2023/03/07 03:14:02;;;;;;;;;;;;;;;3.22;nan;99219.50;5004057;28;19959;-86
2023/03/07 03:16:27;;;;;;;;;;;;;;;3.17;nan;99220.75;5019473;28;19928;-87
2023/03/07 03:18:52;;;;;;;;;;;;;;;3.18;nan;99219.78;5002848;28;19977;-87
2023/03/07 03:21:18;;;;;;;;;;;;;;;3.17;nan;99206.84;5022834;28;19967;-86
2023/03/07 03:23:43;;;;;;;;;;;;;;;3.15;nan;99204.41;5023803;28;19933;-87
2023/03/07 03:26:10;;;;;;;;;;;;;;;3.16;nan;99210.44;4994865;28;19929;-85
2023/03/07 03:28:35;;;;;;;;;;;;;;;3.14;nan;99212.38;4997436;28;19929;-86
2023/03/07 03:31:13;;;;;;;;;;;;;;;3.06;nan;99207.81;5007611;28;19914;-86
2023/03/07 03:33:39;;;;;;;;;;;;;;;3.10;nan;99209.22;5001798;28;20008;-86
2023/03/07 03:36:06;;;;;;;;;;;;;;;3.02;nan;99200.41;5007104;28;19917;-87
2023/03/07 03:38:32;;;;;;;;;;;;;;;3.01;nan;99202.19;5008330;28;19971;-87
2023/03/07 03:40:57;;;;;;;;;;;;;;;3.02;nan;99200.41;5006290;28;19917;-86
2023/03/07 03:43:22;;;;;;;;;;;;;;;3.02;nan;99208.22;5007228;28;20009;-85
2023/03/07 03:45:54;;;;;;;;;;;;;;;2.97;nan;99195.59;5006302;28;19921;-86
2023/03/07 03:48:20;;;;;;;;;;;;;;;2.95;nan;99195.72;5004323;28;19948;-86
2023/03/07 03:50:45;;;;;;;;;;;;;;;2.91;nan;99186.53;5003602;28;19932;-86
2023/03/07 03:53:10;;;;;;;;;;;;;;;2.86;nan;99177.41;5022196;28;19957;-86
2023/03/07 03:55:35;;;;;;;;;;;;;;;2.86;nan;99182.66;5007345;28;19918;-87
2023/03/07 03:58:00;;;;;;;;;;;;;;;2.82;nan;99179.50;5022905;28;19929;-86
2023/03/07 04:00:25;;;;;;;;;;;;;;;2.76;nan;99174.81;5020835;28;19925;-85
2023/03/07 04:02:51;;;;;;;;;;;;;;;2.79;nan;99179.78;5021544;28;19921;-86
2023/03/07 04:05:16;;;;;;;;;;;;;;;2.76;nan;99178.25;5002297;28;20446;-86
2023/03/07 04:07:41;;;;;;;;;;;;;;;2.76;nan;99169.59;5008069;28;19942;-85
2023/03/07 04:10:07;;;;;;;;;;;;;;;2.74;nan;99174.97;5014320;28;19925;-86
2023/03/07 04:12:32;;;;;;;;;;;;;;;2.72;nan;99165.63;4997480;28;19917;-86
2023/03/07 04:14:57;;;;;;;;;;;;;;;2.71;nan;99162.16;5012987;28;19986;-85
2023/03/07 04:17:22;;;;;;;;;;;;;;;2.70;nan;99157.91;4998708;28;20373;-85
2023/03/07 04:19:47;;;;;;;;;;;;;;;2.71;nan;99163.94;5017365;28;19913;-85
2023/03/07 04:22:13;;;;;;;;;;;;;;;2.68;nan;99154.59;4997616;28;19921;-85
2023/03/07 04:24:38;;;;;;;;;;;;;;;2.65;nan;99152.28;5018146;28;19917;-85
2023/03/07 04:27:03;;;;;;;;;;;;;;;2.64;nan;99157.63;5001163;28;19968;-85
2023/03/07 04:29:32;;;;;;;;;;;;;;;2.62;nan;99144.72;4996709;28;19956;-86
2023/03/07 04:31:57;;;;;;;;;;;;;;;2.64;nan;99145.38;4998023;28;19921;-85
2023/03/07 04:34:22;;;;;;;;;;;;;;;2.62;nan;99131.66;4991857;28;20001;-86
2023/03/07 04:36:47;;;;;;;;;;;;;;;2.63;nan;99137.72;4997415;28;19917;-86
2023/03/07 04:39:12;;;;;;;;;;;;;;;2.60;nan;99136.19;4997991;28;19979;-86
2023/03/07 04:41:38;;;;;;;;;;;;;;;2.61;nan;99130.00;4997870;28;19973;-86
2023/03/07 04:44:03;;;;;;;;;;;;;;;2.63;nan;99135.09;5010966;28;20301;-86
2023/03/07 04:46:28;;;;;;;;;;;;;;;2.61;nan;99129.19;5001817;28;19957;-86
2023/03/07 04:48:53;;;;;;;;;;;;;;;2.65;nan;99138.41;4998935;28;19920;-85
2023/03/07 04:51:18;;;;;;;;;;;;;;;2.66;nan;99133.03;4996242;28;19956;-86
2023/03/07 04:53:44;;;;;;;;;;;;;;;2.70;nan;99134.41;5019432;28;19920;-86
2023/03/07 04:56:09;;;;;;;;;;;;;;;2.67;nan;99121.66;4999105;28;20056;-86
2023/03/07 04:58:35;;;;;;;;;;;;;;;2.71;nan;99127.41;5014292;28;19984;-86
2023/03/07 05:01:00;;;;;;;;;;;;;;;2.68;nan;99131.13;5000403;28;20401;-86
2023/03/07 05:03:26;;;;;;;;;;;;;;;2.74;nan;99125.38;5003732;28;19929;-86
2023/03/07 05:05:51;;;;;;;;;;;;;;;2.75;nan;99121.78;5017262;28;19949;-86
2023/03/07 05:08:17;;;;;;;;;;;;;;;2.77;nan;99126.88;4995231;28;20417;-86
2023/03/07 05:10:42;;;;;;;;;;;;;;;2.80;nan;99129.19;5013119;28;19970;-86
2023/03/07 05:13:07;;;;;;;;;;;;;;;2.81;nan;99124.78;5014986;28;19926;-86
2023/03/07 05:15:33;;;;;;;;;;;;;;;2.82;nan;99123.84;5014544;28;19976;-86
2023/03/07 05:18:01;;;;;;;;;;;;;;;2.87;nan;99119.03;5000419;28;19917;-87
2023/03/07 05:20:26;;;;;;;;;;;;;;;2.88;nan;99116.28;5000565;28;19971;-86
2023/03/07 05:22:52;;;;;;;;;;;;;;;2.85;nan;99116.56;5018104;28;19925;-86
2023/03/07 05:25:17;;;;;;;;;;;;;;;2.89;nan;99124.97;4999697;28;19917;-85
2023/03/07 05:27:42;;;;;;;;;;;;;;;2.90;nan;99114.34;5001655;28;19924;-87
2023/03/07 05:30:08;;;;;;;;;;;;;;;2.88;nan;99113.66;5000504;28;19925;-85
2023/03/07 05:32:33;;;;;;;;;;;;;;;2.92;nan;99119.44;4995007;28;19917;-85
2023/03/07 05:34:59;;;;;;;;;;;;;;;2.92;nan;99119.44;4995474;28;19925;-86
2023/03/07 05:37:24;;;;;;;;;;;;;;;2.94;nan;99117.53;5013744;28;19925;-85
2023/03/07 05:39:49;;;;;;;;;;;;;;;2.95;nan;99111.34;4997311;28;19925;-86
2023/03/07 05:42:14;;;;;;;;;;;;;;;2.95;nan;99104.31;4992119;28;19922;-86
2023/03/07 05:44:40;;;;;;;;;;;;;;;2.96;nan;99107.78;4999465;28;19999;-85
2023/03/07 05:47:05;;;;;;;;;;;;;;;2.96;nan;99105.16;4999868;28;19914;-87
2023/03/07 05:49:30;;;;;;;;;;;;;;;2.96;nan;99099.94;5016500;28;20303;-86
2023/03/07 05:51:55;;;;;;;;;;;;;;;2.99;nan;99104.88;5015355;28;20012;-85
2023/03/07 05:54:21;;;;;;;;;;;;;;;3.01;nan;99107.38;4997844;28;19936;-86
2023/03/07 05:56:46;;;;;;;;;;;;;;;3.01;nan;99099.53;5002954;28;20313;-86
2023/03/07 05:59:14;;;;;;;;;;;;;;;3.07;nan;99097.16;5004094;28;20000;-87
2023/03/07 06:01:39;;;;;;;;;;;;;;;3.09;nan;99095.25;4998950;28;19921;-86
2023/03/07 06:04:05;;;;;;;;;;;;;;;3.11;nan;99097.72;5027715;28;19922;-87
2023/03/07 06:06:30;;;;;;;;;;;;;;;3.10;nan;99094.31;5008866;28;19925;-86
2023/03/07 06:08:55;;;;;;;;;;;;;;;3.08;nan;99093.59;5014967;28;19925;-86
2023/03/07 06:11:20;;;;;;;;;;;;;;;3.08;nan;99087.56;5014481;28;20447;-85
2023/03/07 06:13:49;;;;;;;;;;;;;;;3.09;nan;99083.97;5000987;28;19917;-86
2023/03/07 06:16:14;;;;;;;;;;;;;;;3.10;nan;99085.63;4989675;28;19926;-88
2023/03/07 06:18:43;;;;;;;;;;;;;;;3.10;nan;99083.84;4998845;28;19956;-88
2023/03/07 06:21:14;;;;;;;;;;;;;;;3.12;nan;99088.91;5002370;28;19941;-87
2023/03/07 06:23:39;;;;;;;;;;;;;;;3.12;nan;99079.31;5000450;28;19929;-88
2023/03/07 06:26:06;;;;;;;;;;;;;;;3.14;nan;99087.00;5003086;28;19925;-87
2023/03/07 06:28:31;;;;;;;;;;;;;;;3.17;nan;99095.38;4994736;28;19918;-87
2023/03/07 06:30:57;;;;;;;;;;;;;;;3.22;nan;99088.91;5001170;28;19924;-88
2023/03/07 06:33:25;;;;;;;;;;;;;;;3.26;nan;99085.88;5011320;28;20486;-86
2023/03/07 06:35:50;;;;;;;;;;;;;;;3.32;nan;99089.72;4997588;28;19921;-86
2023/03/07 06:38:16;;;;;;;;;;;;;;;3.35;nan;99090.25;4989580;28;19913;-87
2023/03/07 06:40:44;;;;;;;;;;;;;;;3.43;nan;99096.56;4998887;28;19921;-86
2023/03/07 06:43:12;;;;;;;;;;;;;;;3.46;nan;99096.31;4999391;28;19925;-87
2023/03/07 06:45:37;;;;;;;;;;;;;;;3.45;nan;99100.69;4998208;28;19913;-88
2023/03/07 06:48:03;;;;;;;;;;;;;;;3.52;nan;99098.34;4987535;28;20286;-88
2023/03/07 06:50:28;;;;;;;;;;;;;;;3.54;nan;99099.84;4997544;28;19920;-86
2023/03/07 06:52:54;;;;;;;;;;;;;;;3.59;nan;99102.84;4996343;28;19924;-87
2023/03/07 06:55:19;;;;;;;;;;;;;;;3.59;nan;99089.78;4995970;28;19921;-87
2023/03/07 06:57:45;;;;;;;;;;;;;;;3.64;nan;99107.66;4994561;28;19965;-86
2023/03/07 07:00:11;;;;;;;;;;;;;;;3.69;nan;99102.00;4995550;28;19920;-86
2023/03/07 07:02:37;;;;;;;;;;;;;;;3.73;nan;99093.72;5012932;28;20017;-87
2023/03/07 07:05:02;;;;;;;;;;;;;;;3.77;nan;99102.13;4994828;28;20375;-87
2023/03/07 07:07:28;;;;;;;;;;;;;;;3.82;nan;99113.78;4995737;28;19924;-86
2023/03/07 07:09:53;;;;;;;;;;;;;;;3.88;nan;99098.50;4992230;28;19922;-87
2023/03/07 07:12:18;;;;;;;;;;;;;;;3.93;nan;99104.09;4995692;28;20329;-86
2023/03/07 07:14:44;;;;;;;;;;;;;;;3.98;nan;99112.34;5013367;28;20304;-87
2023/03/07 07:17:11;;;;;;;;;;;;;;;3.99;nan;99108.78;4994299;28;20061;-87
2023/03/07 07:19:37;;;;;;;;;;;;;;;4.06;nan;99103.78;5012135;28;19924;-86
2023/03/07 07:22:02;;;;;;;;;;;;;;;4.09;nan;99098.25;4993568;28;20109;-87
2023/03/07 07:24:28;;;;;;;;;;;;;;;4.10;nan;99105.97;4994049;28;19913;-87
2023/03/07 07:26:54;;;;;;;;;;;;;;;4.16;nan;99101.94;4995817;28;19999;-87
2023/03/07 07:29:20;;;;;;;;;;;;;;;4.26;nan;99114.00;4991887;28;19918;-87
2023/03/07 07:31:48;;;;;;;;;;;;;;;4.33;nan;99106.38;5011240;28;20004;-87
2023/03/07 07:34:14;;;;;;;;;;;;;;;4.41;nan;99116.97;4992303;28;19920;-87
2023/03/07 07:36:39;;;;;;;;;;;;;;;4.45;nan;99107.00;4994436;28;19917;-87
2023/03/07 07:39:09;;;;;;;;;;;;;;;4.47;nan;99111.13;5000666;28;19914;-87
2023/03/07 07:41:34;;;;;;;;;;;;;;;4.49;nan;99110.16;4986944;28;20286;-88
2023/03/07 07:44:00;;;;;;;;;;;;;;;4.49;nan;99105.75;4986361;28;19919;-88
2023/03/07 07:46:27;;;;;;;;;;;;;;;4.45;nan;99110.44;4997105;28;19972;-87
2023/03/07 07:48:52;;;;;;;;;;;;;;;4.50;nan;99112.63;5016077;28;19949;-87
2023/03/07 07:51:21;;;;;;;;;;;;;;;4.55;nan;99109.56;5004763;28;19928;-87
2023/03/07 07:53:46;;;;;;;;;;;;;;;4.63;nan;99101.81;5018526;28;19913;-87
2023/03/07 07:56:11;;;;;;;;;;;;;;;4.76;nan;99101.41;4995889;28;19924;-87
2023/03/07 07:58:36;;;;;;;;;;;;;;;4.82;nan;99106.88;4997490;28;19913;-87
2023/03/07 08:01:12;;;;;;;;;;;;;;;4.90;nan;99106.13;4996432;28;19992;-87
2023/03/07 08:03:37;;;;;;;;;;;;;;;4.89;nan;99107.13;4995862;28;20000;-87
2023/03/07 08:06:02;;;;;;;;;;;;;;;4.96;nan;99102.06;4996755;28;19968;-87
2023/03/07 08:08:30;;;;;;;;;;;;;;;4.96;nan;99099.47;4996724;28;20398;-87
2023/03/07 08:10:56;;;;;;;;;;;;;;;4.99;nan;99096.56;4996570;28;19917;-86
2023/03/07 08:13:23;;;;;;;;;;;;;;;5.07;nan;99097.44;4994370;28;19920;-87
2023/03/07 08:15:48;;;;;;;;;;;;;;;5.16;nan;99087.03;4999081;28;19920;-87
2023/03/07 08:18:14;;;;;;;;;;;;;;;5.24;nan;99080.06;5007507;28;19914;-86
2023/03/07 08:20:42;;;;;;;;;;;;;;;5.28;nan;99078.75;4999590;28;19920;-87
2023/03/07 08:23:10;;;;;;;;;;;;;;;5.34;nan;99072.09;5019033;28;19921;-87
2023/03/07 08:25:37;;;;;;;;;;;;;;;5.38;nan;99086.50;5018313;28;19959;-87
2023/03/07 08:28:04;;;;;;;;;;;;;;;5.44;nan;99085.09;4994352;28;20410;-87
2023/03/07 08:30:30;;;;;;;;;;;;;;;5.56;nan;99078.63;5013433;28;19937;-87
2023/03/07 08:32:58;;;;;;;;;;;;;;;5.65;nan;99080.31;5016114;28;19917;-87
2023/03/07 08:35:26;;;;;;;;;;;;;;;5.69;nan;99081.63;5001283;28;19918;-87
2023/03/07 08:37:53;;;;;;;;;;;;;;;5.74;nan;99071.50;4999690;28;19913;-87
2023/03/07 08:40:18;;;;;;;;;;;;;;;5.85;nan;99080.06;5014367;28;19917;-87
2023/03/07 08:42:45;;;;;;;;;;;;;;;5.91;nan;99071.56;4989434;28;20154;-87
2023/03/07 08:45:13;;;;;;;;;;;;;;;5.93;nan;99070.44;4997364;28;19929;-87
2023/03/07 08:47:42;;;;;;;;;;;;;;;6.00;nan;99069.81;4999071;28;19918;-88
2023/03/07 08:50:08;;;;;;;;;;;;;;;6.05;nan;99063.13;5002711;28;19917;-89
2023/03/07 08:52:36;;;;;;;;;;;;;;;6.17;nan;99058.41;5010523;28;19984;-87
2023/03/07 08:55:01;;;;;;;;;;;;;;;6.25;nan;99063.69;5014113;28;20408;-87
2023/03/07 08:57:26;;;;;;;;;;;;;;;6.27;nan;99056.47;5004784;28;19949;-88
2023/03/07 08:59:52;;;;;;;;;;;;;;;6.30;nan;99058.78;5003715;28;19913;-87
2023/03/07 09:02:17;;;;;;;;;;;;;;;6.38;nan;99058.78;5016107;28;19967;-88
2023/03/07 09:04:44;;;;;;;;;;;;;;;6.56;nan;99056.03;4996012;28;19921;-88
2023/03/07 09:07:09;;;;;;;;;;;;;;;6.57;nan;99062.09;4995982;28;19917;-88
2023/03/07 09:09:35;;;;;;;;;;;;;;;6.56;nan;99063.09;4998064;28;19914;-88
2023/03/07 09:12:00;;;;;;;;;;;;;;;6.62;nan;99053.75;4995935;28;19918;-87
2023/03/07 09:14:28;;;;;;;;;;;;;;;6.68;nan;99061.78;5015221;28;19996;-87
2023/03/07 09:17:10;;;;;;;;;;;;;;;;;;;;;
2023/03/07 09:19:44;;;;;;;;;;;;;;;6.94;nan;99061.66;5005064;28;19913;-87
2023/03/07 09:22:12;;;;;;;;;;;;;;;6.98;nan;99060.34;4984958;28;20182;-88
2023/03/07 09:24:37;;;;;;;;;;;;;;;7.04;nan;99058.03;4999443;28;20000;-87
2023/03/07 09:27:03;;;;;;;;;;;;;;;7.07;nan;99048.00;4994558;28;19917;-87
2023/03/07 09:29:28;;;;;;;;;;;;;;;7.08;nan;99044.41;4997890;28;20409;-88
2023/03/07 09:32:02;;;;;;;;;;;;;;;7.15;nan;99047.16;5006392;28;19917;-86
2023/03/07 09:34:28;;;;;;;;;;;;;;;7.23;nan;99044.53;4997658;28;20009;-87
2023/03/07 09:36:53;;;;;;;;;;;;;;;7.36;nan;99042.19;5003495;28;19937;-87
2023/03/07 09:39:19;;;;;;;;;;;;;;;7.41;nan;99047.81;5002147;28;19953;-87
2023/03/07 09:41:50;;;;;;;;;;;;;;;7.54;nan;99042.00;4999229;28;19913;-86
2023/03/07 09:44:29;;;;;;;;;;;;;;;7.68;nan;99040.50;4989304;28;20007;-90
2023/03/07 09:47:30;;;;;;;;;;;;;;;7.81;nan;99037.31;5003749;28;19921;-86
2023/03/07 09:50:00;;;;;;;;;;;;;;;7.97;nan;99041.69;4990945;28;19914;-88
2023/03/07 09:52:27;;;;;;;;;;;;;;;7.96;nan;99026.88;4994227;28;20040;-87
2023/03/07 09:55:08;;;;;;;;;;;;;;;8.08;nan;99030.78;4995458;28;19921;-87
2023/03/07 09:57:49;;;;;;;;;;;;;;;8.22;nan;99024.78;4992208;28;20012;-87
2023/03/07 10:00:35;;;;;;;;;;;;;;;8.61;nan;99013.34;5014616;28;19913;-88
2023/03/07 10:03:19;;;;;;;;;;;;;;;8.97;nan;99014.56;4996886;28;20394;-88
2023/03/07 10:05:50;;;;;;;;;;;;;;;9.09;nan;99008.66;4995303;28;20233;-87
2023/03/07 10:08:35;;;;;;;;;;;;;;;9.07;nan;99005.38;4997192;28;19913;-88
2023/03/07 10:11:07;;;;;;;;;;;;;;;8.91;nan;99000.25;4982976;28;20286;-87
2023/03/07 10:13:38;;;;;;;;;;;;;;;8.76;nan;98999.41;4985112;28;19924;-87
2023/03/07 10:19:33;;;;;;;;;;;;;;;8.55;nan;98989.53;5005816;28;19923;-87
2023/03/07 10:22:11;;;;;;;;;;;;;;;8.35;nan;98995.22;4995470;28;20289;-90
2023/03/07 10:25:02;;;;;;;;;;;;;;;8.03;nan;98980.44;4985603;28;19956;-86
2023/03/07 10:27:29;;;;;;;;;;;;;;;7.72;nan;98983.88;4988774;28;19921;-87
2023/03/07 10:30:12;;;;;;;;;;;;;;;7.70;nan;98983.25;4995964;28;19913;-87
2023/03/07 10:32:44;;;;;;;;;;;;;;;7.51;nan;98976.59;4986638;28;20268;-87
2023/03/07 10:35:10;;;;;;;;;;;;;;;7.32;nan;98982.25;4995826;28;19971;-87
2023/03/07 10:37:49;;;;;;;;;;;;;;;7.28;nan;98971.25;5015609;28;19913;-87
2023/03/07 10:40:23;;;;;;;;;;;;;;;7.21;nan;98975.53;4997824;28;19978;-87
2023/03/07 10:43:01;;;;;;;;;;;;;;;7.16;nan;98972.59;5004702;28;19924;-87
2023/03/07 10:45:36;;;;;;;;;;;;;;;7.09;nan;98969.00;5014978;28;20370;-87
2023/03/07 10:48:14;;;;;;;;;;;;;;;7.12;nan;98972.09;5000506;28;19964;-86
2023/03/07 10:51:18;;;;;;;;;;;;;;;7.09;nan;98961.09;5017483;28;20402;-86
2023/03/07 10:54:06;;;;;;;;;;;;;;;7.11;nan;98959.94;5011096;28;19940;-85
2023/03/07 10:56:32;;;;;;;;;;;;;;;7.26;nan;98954.81;4948727;28;19918;-85
2023/03/07 10:59:08;;;;;;;;;;;;;;;7.40;nan;98956.72;4998339;28;19917;-86
2023/03/07 11:01:37;;;;;;;;;;;;;;;7.51;nan;98952.09;4997003;28;19917;-87
2023/03/07 11:04:19;;;;;;;;;;;;;;;7.50;nan;98953.09;4984980;28;20061;-86
2023/03/07 11:07:00;;;;;;;;;;;;;;;7.56;nan;98953.22;5030484;28;19914;-87
2023/03/07 11:10:01;;;;;;;;;;;;;;;;;;;;;
2023/03/07 11:12:31;;;;;;;;;;;;;;;7.63;nan;98953.38;4983588;28;19977;-87
2023/03/07 11:18:21;;;;;;;;;;;;;;;7.86;nan;98940.25;5007282;28;19916;-87
2023/03/07 11:20:48;;;;;;;;;;;;;;;7.91;nan;98937.09;4993394;28;19913;-88
2023/03/07 11:23:30;;;;;;;;;;;;;;;7.90;nan;98943.38;5005468;28;20115;-88
2023/03/07 11:26:12;;;;;;;;;;;;;;;7.85;nan;98935.97;5005445;28;20302;-88
2023/03/07 11:28:40;;;;;;;;;;;;;;;7.79;nan;98926.94;4985524;28;19914;-88
2023/03/07 11:31:34;;;;;;;;;;;;;;;7.78;nan;98922.69;5016418;28;19914;-87
2023/03/07 11:34:06;;;;;;;;;;;;;;;7.88;nan;98918.03;5010388;28;19940;-87
2023/03/07 11:36:47;;;;;;;;;;;;;;;8.07;nan;98919.38;5002428;28;19901;-87
2023/03/07 11:39:32;;;;;;;;;;;;;;;8.09;nan;98911.31;5012041;28;19923;-88
2023/03/07 11:42:10;;;;;;;;;;;;;;;8.07;nan;98910.66;5024701;28;19920;-88
2023/03/07 11:44:38;;;;;;;;;;;;;;;8.01;nan;98914.03;5006949;28;19960;-87
2023/03/07 11:47:04;;;;;;;;;;;;;;;7.86;nan;98901.59;4996913;28;19960;-87
2023/03/07 11:49:51;;;;;;;;;;;;;;;7.81;nan;98908.38;5003315;28;19914;-87
2023/03/07 11:52:55;;;;;;;;;;;;;;;7.75;nan;98909.09;4990689;28;19918;-88
2023/03/07 11:55:35;;;;;;;;;;;;;;;7.68;nan;98910.75;5002542;28;19968;-88
2023/03/07 11:58:19;;;;;;;;;;;;;;;7.57;nan;98902.25;5004508;28;19984;-88
2023/03/07 12:01:03;;;;;;;;;;;;;;;7.60;nan;98906.34;5020524;28;19937;-88
2023/03/07 12:03:48;;;;;;;;;;;;;;;7.55;nan;98900.78;4991145;28;19981;-88
2023/03/07 12:06:34;;;;;;;;;;;;;;;7.53;nan;98900.13;4983127;28;19921;-87
2023/03/07 12:09:05;;;;;;;;;;;;;;;7.54;nan;98896.53;4986858;28;19972;-88
2023/03/07 12:11:33;;;;;;;;;;;;;;;7.63;nan;98898.13;5026818;28;19918;-88
2023/03/07 12:14:16;;;;;;;;;;;;;;;7.74;nan;98895.09;4999275;28;19957;-87
2023/03/07 12:16:41;;;;;;;;;;;;;;;7.81;nan;98887.31;4996013;28;19914;-88
2023/03/07 12:19:23;;;;;;;;;;;;;;;7.86;nan;98877.94;4997288;28;20433;-86
2023/03/07 12:21:59;;;;;;;;;;;;;;;7.86;nan;98877.09;5014908;28;20367;-87
2023/03/07 12:24:27;;;;;;;;;;;;;;;7.73;nan;98875.03;4998779;28;19929;-86
2023/03/07 12:26:59;;;;;;;;;;;;;;;7.70;nan;98880.66;5006704;28;19944;-87
2023/03/07 12:29:33;;;;;;;;;;;;;;;7.67;nan;98875.72;5000644;28;19971;-87
2023/03/07 12:32:02;;;;;;;;;;;;;;;7.59;nan;98881.84;5000582;28;20011;-86
2023/03/07 12:34:35;;;;;;;;;;;;;;;7.56;nan;98869.06;5018245;28;19978;-88
2023/03/07 12:37:10;;;;;;;;;;;;;;;7.53;nan;98864.16;4998450;28;19914;-89
2023/03/07 12:39:45;;;;;;;;;;;;;;;7.51;nan;98870.56;4999295;28;19913;-88
2023/03/07 12:42:11;;;;;;;;;;;;;;;7.51;nan;98854.75;4998286;28;20417;-87
2023/03/07 12:44:39;;;;;;;;;;;;;;;7.50;nan;98856.59;5001499;28;19913;-89
2023/03/07 12:47:13;;;;;;;;;;;;;;;7.56;nan;98844.56;5003899;28;20445;-89
2023/03/07 12:49:43;;;;;;;;;;;;;;;7.62;nan;98841.22;5004114;28;19955;-88
2023/03/07 12:52:15;;;;;;;;;;;;;;;7.71;nan;98842.00;5000021;28;19921;-87
2023/03/07 12:54:46;;;;;;;;;;;;;;;7.73;nan;98837.41;4999612;28;19980;-89
2023/03/07 12:57:31;;;;;;;;;;;;;;;7.75;nan;98836.22;4998645;28;19913;-88
2023/03/07 12:59:59;;;;;;;;;;;;;;;7.75;nan;98836.22;4999062;28;19917;-87
2023/03/07 13:02:29;;;;;;;;;;;;;;;7.67;nan;98838.88;4997310;28;19924;-89
2023/03/07 13:04:56;;;;;;;;;;;;;;;7.57;nan;98835.69;4998533;28;19918;-88
2023/03/07 13:07:32;;;;;;;;;;;;;;;7.55;nan;98835.03;4998832;28;19970;-89
2023/03/07 13:09:58;;;;;;;;;;;;;;;7.50;nan;98834.72;4998144;28;19918;-87
2023/03/07 13:12:29;;;;;;;;;;;;;;;7.49;nan;98826.03;4994263;28;19914;-88
2023/03/07 13:15:04;;;;;;;;;;;;;;;7.47;nan;98832.47;4998140;28;19914;-88
2023/03/07 13:17:29;;;;;;;;;;;;;;;7.40;nan;98830.50;4996724;28;19920;-88
2023/03/07 13:19:56;;;;;;;;;;;;;;;7.38;nan;98829.84;5012794;28;19917;-88
2023/03/07 13:22:22;;;;;;;;;;;;;;;7.35;nan;98827.59;5012854;28;19932;-88
2023/03/07 13:24:47;;;;;;;;;;;;;;;7.36;nan;98826.56;4996364;28;19917;-89
2023/03/07 13:27:14;;;;;;;;;;;;;;;7.37;nan;98822.16;4995894;28;20450;-89
2023/03/07 13:30:00;;;;;;;;;;;;;;;7.37;nan;98827.41;4996134;28;19924;-89
2023/03/07 13:32:45;;;;;;;;;;;;;;;7.34;nan;98823.31;4988498;28;20023;-89
2023/03/07 13:35:10;;;;;;;;;;;;;;;7.32;nan;98817.41;4996007;28;20214;-88